Time;durP1;ratioP1;P1;durP2;ratioP2;P2;SDS_P1;SDS_P2;PMS_P1;PMS_P2;Temp;Humidity;BMP_temperature;BMP_pressure;BME280_temperature;BME280_humidity;BME280_pressure;Samples;Min_cycle;Max_cycle;Signal;HPM_P1;HPM_P2
2022/01/07 00:01:06;;;;;;;;;;;-1.40;99.90;;;;;;5021059;28;20027;-72
2022/01/07 00:03:38;;;;;;;;;;;-1.50;99.90;;;;;;5016702;28;19956;-72
2022/01/07 00:06:05;;;;;;;;;;;-1.50;99.90;;;;;;5041250;28;20393;-72
2022/01/07 00:08:31;;;;;;;;;;;-1.60;99.90;;;;;;5055233;28;20016;-72
2022/01/07 00:10:58;;;;;;;;;;;-1.60;99.90;;;;;;5036005;28;20008;-72
2022/01/07 00:13:30;;;;;;;;;;;-1.70;99.90;;;;;;5053638;28;20395;-72
2022/01/07 00:16:02;;;;;;;;;;;-1.80;99.90;;;;;;5020974;28;19921;-72
2022/01/07 00:18:33;;;;;;;;;;;-1.80;99.90;;;;;;5036494;28;20018;-73
2022/01/07 00:21:00;;;;;;;;;;;-1.90;99.90;;;;;;5036352;28;20015;-72
2022/01/07 00:23:27;;;;;;;;;;;-1.80;99.90;;;;;;5053656;28;20016;-72
2022/01/07 00:25:54;;;;;;;;;;;-1.80;99.90;;;;;;5054013;28;19960;-72
2022/01/07 00:28:25;;;;;;;;;;;-1.90;99.90;;;;;;5034956;28;20595;-72
2022/01/07 00:30:57;;;;;;;;;;;-1.90;99.90;;;;;;5035113;28;20389;-72
2022/01/07 00:33:24;;;;;;;;;;;-1.80;99.90;;;;;;5035410;28;20445;-72
2022/01/07 00:35:56;;;;;;;;;;;-1.80;99.90;;;;;;5020560;28;19927;-72
2022/01/07 00:38:23;;;;;;;;;;;-1.80;99.90;;;;;;5036277;28;20019;-72
2022/01/07 00:40:55;;;;;;;;;;;-1.90;99.90;;;;;;5034809;28;20016;-72
2022/01/07 00:43:26;;;;;;;;;;;-1.80;99.90;;;;;;5053436;28;19921;-72
2022/01/07 00:45:58;;;;;;;;;;;-1.80;99.90;;;;;;5035916;28;20011;-72
2022/01/07 00:48:29;;;;;;;;;;;-1.80;99.90;;;;;;5035642;28;19931;-72
2022/01/07 00:51:01;;;;;;;;;;;-1.90;99.90;;;;;;5036735;28;20012;-72
2022/01/07 00:53:33;;;;;;;;;;;-1.90;99.90;;;;;;5052784;28;19921;-72
2022/01/07 00:55:59;;;;;;;;;;;-1.90;99.90;;;;;;5051192;28;19928;-71
2022/01/07 00:58:31;;;;;;;;;;;-2.00;99.90;;;;;;5053570;28;19921;-72
2022/01/07 01:00:58;;;;;;;;;;;-2.00;99.90;;;;;;5033131;28;19974;-71
2022/01/07 01:03:29;;;;;;;;;;;-2.10;99.90;;;;;;5015408;28;19925;-72
2022/01/07 01:05:59;;;;;;;;;;;-2.10;99.90;;;;;;5033570;28;20000;-71
2022/01/07 01:08:26;;;;;;;;;;;-2.10;99.90;;;;;;5047523;28;20023;-71
2022/01/07 01:10:54;;;;;;;;;;;-2.00;99.90;;;;;;5029368;28;20032;-72
2022/01/07 01:13:26;;;;;;;;;;;-1.90;99.90;;;;;;5013746;28;19921;-72
2022/01/07 01:15:58;;;;;;;;;;;-1.90;99.90;;;;;;5019579;28;19921;-73
2022/01/07 01:18:30;;;;;;;;;;;-1.90;99.90;;;;;;5019856;28;19928;-72
2022/01/07 01:20:56;;;;;;;;;;;-1.90;99.90;;;;;;5034598;28;20003;-72
2022/01/07 01:23:28;;;;;;;;;;;-2.00;99.90;;;;;;5052698;28;20011;-72
2022/01/07 01:26:00;;;;;;;;;;;-2.00;99.90;;;;;;5036271;28;19925;-72
2022/01/07 01:28:26;;;;;;;;;;;-1.90;99.90;;;;;;5035169;28;20388;-72
2022/01/07 01:30:58;;;;;;;;;;;-2.00;99.90;;;;;;5052895;28;20020;-72
2022/01/07 01:33:25;;;;;;;;;;;-2.10;99.90;;;;;;5034841;28;20278;-71
2022/01/07 01:35:56;;;;;;;;;;;-2.10;99.90;;;;;;5035046;28;20011;-73
2022/01/07 01:38:23;;;;;;;;;;;-2.20;99.90;;;;;;5018685;28;19970;-72
2022/01/07 01:40:55;;;;;;;;;;;-2.20;99.90;;;;;;5019183;28;19927;-72
2022/01/07 01:43:26;;;;;;;;;;;-2.20;99.90;;;;;;5018467;28;20015;-71
2022/01/07 01:45:53;;;;;;;;;;;-2.20;99.90;;;;;;5052709;28;20392;-72
2022/01/07 01:48:25;;;;;;;;;;;-2.20;99.90;;;;;;5034676;28;20040;-72
2022/01/07 01:50:56;;;;;;;;;;;-2.20;99.90;;;;;;5034678;28;20011;-72
2022/01/07 01:53:24;;;;;;;;;;;-2.20;99.90;;;;;;5034331;28;20338;-72
2022/01/07 01:55:56;;;;;;;;;;;-2.10;99.90;;;;;;5052442;28;20016;-72
2022/01/07 01:58:28;;;;;;;;;;;-2.10;99.90;;;;;;5035517;28;20286;-72
2022/01/07 02:01:00;;;;;;;;;;;-2.10;99.90;;;;;;5033960;28;19978;-70
2022/01/07 02:03:26;;;;;;;;;;;-2.20;99.90;;;;;;5033591;28;19960;-72
2022/01/07 02:05:58;;;;;;;;;;;-2.20;99.90;;;;;;5033911;28;19920;-72
2022/01/07 02:08:25;;;;;;;;;;;-2.20;99.90;;;;;;5034390;28;19928;-72
2022/01/07 02:10:58;;;;;;;;;;;-2.20;99.90;;;;;;5034317;28;20425;-72
2022/01/07 02:13:29;;;;;;;;;;;-2.10;99.90;;;;;;5034470;28;20143;-72
2022/01/07 02:15:56;;;;;;;;;;;-2.20;99.90;;;;;;5033999;28;20476;-72
2022/01/07 02:18:28;;;;;;;;;;;-2.20;99.90;;;;;;5033643;28;19921;-71
2022/01/07 02:20:59;;;;;;;;;;;-2.20;99.90;;;;;;5051341;28;20452;-72
2022/01/07 02:23:32;;;;;;;;;;;-2.20;99.90;;;;;;5033855;28;19920;-71
2022/01/07 02:25:59;;;;;;;;;;;-2.20;99.90;;;;;;5033737;28;19960;-71
2022/01/07 02:28:33;;;;;;;;;;;-2.20;99.90;;;;;;5034191;28;19921;-72
2022/01/07 02:31:00;;;;;;;;;;;-2.20;99.90;;;;;;5051384;28;19968;-72
2022/01/07 02:33:32;;;;;;;;;;;-2.20;99.90;;;;;;5033126;28;19921;-71
2022/01/07 02:36:10;;;;;;;;;;;-2.20;99.90;;;;;;5018236;28;20015;-71
2022/01/07 02:38:37;;;;;;;;;;;-2.30;99.90;;;;;;5034081;28;20451;-72
2022/01/07 02:41:09;;;;;;;;;;;-2.30;99.90;;;;;;5051558;28;20033;-71
2022/01/07 02:43:35;;;;;;;;;;;-2.30;99.90;;;;;;5033389;28;19982;-72
2022/01/07 02:46:07;;;;;;;;;;;-2.30;99.90;;;;;;5051527;28;20015;-71
2022/01/07 02:48:39;;;;;;;;;;;-2.30;99.90;;;;;;5014815;28;20000;-72
2022/01/07 02:51:10;;;;;;;;;;;-2.30;99.90;;;;;;5049883;28;20641;-71
2022/01/07 02:53:42;;;;;;;;;;;-2.40;99.90;;;;;;5050483;28;20007;-72
2022/01/07 02:56:11;;;;;;;;;;;-2.30;99.90;;;;;;5018216;28;20403;-72
2022/01/07 02:58:42;;;;;;;;;;;-2.30;99.90;;;;;;5034850;28;19943;-72
2022/01/07 03:01:14;;;;;;;;;;;-2.40;99.90;;;;;;5030066;28;19921;-71
2022/01/07 03:03:46;;;;;;;;;;;-2.50;99.90;;;;;;5050898;28;19929;-71
2022/01/07 03:06:18;;;;;;;;;;;-2.50;99.90;;;;;;5034360;28;20019;-72
2022/01/07 03:08:50;;;;;;;;;;;-2.50;99.90;;;;;;5034014;28;20011;-71
2022/01/07 03:11:17;;;;;;;;;;;-2.50;99.90;;;;;;5061472;28;19958;-71
2022/01/07 03:13:49;;;;;;;;;;;-2.50;99.90;;;;;;5050570;28;19975;-72
2022/01/07 03:16:21;;;;;;;;;;;-2.50;99.90;;;;;;5033384;28;20023;-72
2022/01/07 03:18:53;;;;;;;;;;;-2.50;99.90;;;;;;5033540;28;19920;-72
2022/01/07 03:21:19;;;;;;;;;;;-2.60;99.90;;;;;;5050918;28;20292;-72
2022/01/07 03:23:46;;;;;;;;;;;-2.60;99.90;;;;;;5050889;28;20023;-71
2022/01/07 03:26:18;;;;;;;;;;;-2.60;99.90;;;;;;5033218;28;19920;-72
2022/01/07 03:28:49;;;;;;;;;;;-2.60;99.90;;;;;;5051195;28;20305;-72
2022/01/07 03:31:21;;;;;;;;;;;-2.70;99.90;;;;;;5033484;28;19933;-72
2022/01/07 03:33:52;;;;;;;;;;;-2.70;99.90;;;;;;5050560;28;20019;-71
2022/01/07 03:36:19;;;;;;;;;;;-2.70;99.90;;;;;;5032875;28;20012;-72
2022/01/07 03:38:51;;;;;;;;;;;-2.70;99.90;;;;;;5033357;28;19999;-71
2022/01/07 03:41:23;;;;;;;;;;;-2.70;99.90;;;;;;5017457;28;19925;-71
2022/01/07 03:43:49;;;;;;;;;;;-2.70;99.90;;;;;;5032741;28;20024;-71
2022/01/07 03:46:21;;;;;;;;;;;-2.70;99.90;;;;;;5033063;28;20300;-71
2022/01/07 03:48:53;;;;;;;;;;;-2.70;99.90;;;;;;5050777;28;19921;-71
2022/01/07 03:51:24;;;;;;;;;;;-2.70;99.90;;;;;;5017154;28;19927;-72
2022/01/07 03:53:56;;;;;;;;;;;-2.80;99.90;;;;;;5032805;28;19921;-71
2022/01/07 03:56:23;;;;;;;;;;;-2.80;99.90;;;;;;5050932;28;20016;-72
2022/01/07 03:58:54;;;;;;;;;;;-2.80;99.90;;;;;;5050766;28;20395;-71
2022/01/07 04:01:26;;;;;;;;;;;-2.80;99.90;;;;;;5033188;28;19921;-71
2022/01/07 04:03:58;;;;;;;;;;;-2.80;99.90;;;;;;5035191;28;19925;-72
2022/01/07 04:06:29;;;;;;;;;;;-2.80;99.90;;;;;;5036545;28;19921;-71
2022/01/07 04:09:01;;;;;;;;;;;-2.90;99.90;;;;;;5036430;28;19925;-71
2022/01/07 04:11:28;;;;;;;;;;;-2.90;99.90;;;;;;5036727;28;19927;-71
2022/01/07 04:13:59;;;;;;;;;;;-3.00;99.90;;;;;;5036032;28;19931;-71
2022/01/07 04:16:31;;;;;;;;;;;-3.00;99.90;;;;;;5036529;28;20020;-71
2022/01/07 04:19:03;;;;;;;;;;;-3.00;99.90;;;;;;5053934;28;19921;-71
2022/01/07 04:21:34;;;;;;;;;;;-3.00;99.90;;;;;;5054196;28;19927;-71
2022/01/07 04:24:06;;;;;;;;;;;-3.00;99.90;;;;;;5053829;28;19928;-70
2022/01/07 04:26:37;;;;;;;;;;;-3.00;99.90;;;;;;5036209;28;19921;-71
2022/01/07 04:29:04;;;;;;;;;;;-3.00;99.90;;;;;;5036196;28;20320;-70
2022/01/07 04:31:36;;;;;;;;;;;-3.10;99.90;;;;;;5036380;28;20469;-70
2022/01/07 04:34:08;;;;;;;;;;;-3.10;99.90;;;;;;5036431;28;20027;-70
2022/01/07 04:36:39;;;;;;;;;;;-3.00;99.90;;;;;;5034164;28;19921;-70
2022/01/07 04:39:11;;;;;;;;;;;-3.10;99.90;;;;;;5016272;28;20032;-70
2022/01/07 04:41:42;;;;;;;;;;;-3.10;99.90;;;;;;5046610;28;20278;-71
2022/01/07 04:44:09;;;;;;;;;;;-3.10;99.90;;;;;;5035900;28;19959;-71
2022/01/07 04:46:41;;;;;;;;;;;-3.10;99.90;;;;;;5035911;28;20016;-70
2022/01/07 04:49:12;;;;;;;;;;;-3.20;99.90;;;;;;5019714;28;19920;-71
2022/01/07 04:51:44;;;;;;;;;;;-3.20;99.90;;;;;;5053238;28;19920;-72
2022/01/07 04:54:16;;;;;;;;;;;-3.20;99.90;;;;;;5052630;28;19974;-71
2022/01/07 04:56:47;;;;;;;;;;;-3.20;99.90;;;;;;5035007;28;19921;-71
2022/01/07 04:59:19;;;;;;;;;;;-3.20;99.90;;;;;;5052941;28;19963;-71
2022/01/07 05:01:51;;;;;;;;;;;-3.20;99.90;;;;;;5036039;28;19927;-70
2022/01/07 05:04:18;;;;;;;;;;;-3.20;99.90;;;;;;5052415;28;20362;-70
2022/01/07 05:06:49;;;;;;;;;;;-3.20;99.90;;;;;;5035865;28;20385;-72
2022/01/07 05:09:17;;;;;;;;;;;-3.20;99.90;;;;;;5034783;28;20015;-71
2022/01/07 05:11:44;;;;;;;;;;;-3.20;99.90;;;;;;5034705;28;20023;-70
2022/01/07 05:14:16;;;;;;;;;;;-3.30;99.90;;;;;;5034210;28;20636;-71
2022/01/07 05:16:43;;;;;;;;;;;-3.30;99.90;;;;;;5034184;28;20007;-70
2022/01/07 05:19:15;;;;;;;;;;;-3.30;99.90;;;;;;5035705;28;20288;-71
2022/01/07 05:21:46;;;;;;;;;;;-3.30;99.90;;;;;;5035652;28;19921;-71
2022/01/07 05:24:18;;;;;;;;;;;-3.30;99.90;;;;;;5034173;28;20023;-71
2022/01/07 05:26:49;;;;;;;;;;;-3.30;99.90;;;;;;5052130;28;19921;-70
2022/01/07 05:29:21;;;;;;;;;;;-3.30;99.90;;;;;;5030540;28;19924;-71
2022/01/07 05:31:53;;;;;;;;;;;-3.30;99.90;;;;;;5034175;28;19927;-72
2022/01/07 05:34:19;;;;;;;;;;;-3.30;99.90;;;;;;5051813;28;20400;-71
2022/01/07 05:36:46;;;;;;;;;;;-3.40;99.90;;;;;;5018178;28;19956;-70
2022/01/07 05:39:13;;;;;;;;;;;-3.40;99.90;;;;;;5050460;28;20023;-70
2022/01/07 05:41:44;;;;;;;;;;;-3.50;99.90;;;;;;5034802;28;20278;-71
2022/01/07 05:44:11;;;;;;;;;;;-3.40;99.90;;;;;;5051348;28;19964;-70
2022/01/07 05:46:42;;;;;;;;;;;-3.50;99.90;;;;;;5054943;28;19927;-70
2022/01/07 05:49:14;;;;;;;;;;;-3.50;99.90;;;;;;5044889;28;19943;-71
2022/01/07 05:51:41;;;;;;;;;;;-3.50;99.90;;;;;;5030512;28;20282;-71
2022/01/07 05:54:08;;;;;;;;;;;-3.50;99.90;;;;;;5045724;28;19957;-70
2022/01/07 05:56:40;;;;;;;;;;;-3.50;99.90;;;;;;5027571;28;19921;-70
2022/01/07 05:59:11;;;;;;;;;;;-3.50;99.90;;;;;;5031391;28;19931;-70
2022/01/07 06:01:43;;;;;;;;;;;-3.50;99.90;;;;;;5032184;28;20407;-71
2022/01/07 06:04:15;;;;;;;;;;;-3.50;99.90;;;;;;5038490;28;19920;-70
2022/01/07 06:06:46;;;;;;;;;;;-3.60;99.90;;;;;;5052407;28;19948;-70
2022/01/07 06:09:18;;;;;;;;;;;-3.60;99.90;;;;;;5052057;28;19927;-70
2022/01/07 06:11:49;;;;;;;;;;;-3.70;99.90;;;;;;5034184;28;19920;-71
2022/01/07 06:14:16;;;;;;;;;;;-3.70;99.90;;;;;;5051736;28;20003;-71
2022/01/07 06:16:48;;;;;;;;;;;-3.70;99.90;;;;;;5034369;28;20292;-70
2022/01/07 06:19:20;;;;;;;;;;;-3.80;99.90;;;;;;5034056;28;19920;-70
2022/01/07 06:21:52;;;;;;;;;;;-3.80;99.90;;;;;;5035027;28;19931;-72
2022/01/07 06:24:23;;;;;;;;;;;-3.80;99.90;;;;;;5033812;28;20295;-70
2022/01/07 06:26:50;;;;;;;;;;;-3.80;99.90;;;;;;5033581;28;20016;-72
2022/01/07 06:29:17;;;;;;;;;;;-3.70;99.90;;;;;;5033735;28;20019;-71
2022/01/07 06:31:44;;;;;;;;;;;-3.70;99.90;;;;;;5034282;28;19960;-70
2022/01/07 06:34:18;;;;;;;;;;;-3.70;99.90;;;;;;5033897;28;20019;-70
2022/01/07 06:36:45;;;;;;;;;;;-3.70;99.90;;;;;;5034605;28;19967;-72
2022/01/07 06:39:12;;;;;;;;;;;-3.60;99.90;;;;;;5017441;28;20007;-71
2022/01/07 06:41:46;;;;;;;;;;;-3.60;99.90;;;;;;5051801;28;20027;-71
2022/01/07 06:44:14;;;;;;;;;;;-3.60;99.90;;;;;;5051282;28;19920;-70
2022/01/07 06:46:46;;;;;;;;;;;-3.60;99.90;;;;;;5051535;28;20359;-71
2022/01/07 06:49:15;;;;;;;;;;;-3.50;99.90;;;;;;5046693;28;19960;-71
2022/01/07 06:51:47;;;;;;;;;;;-3.40;99.90;;;;;;5023277;28;20001;-70
2022/01/07 06:54:19;;;;;;;;;;;-3.40;99.90;;;;;;5051171;28;20016;-70
2022/01/07 06:56:46;;;;;;;;;;;-3.30;99.90;;;;;;5033451;28;19920;-70
2022/01/07 06:59:17;;;;;;;;;;;-3.30;99.90;;;;;;5034720;28;19974;-70
2022/01/07 07:01:49;;;;;;;;;;;-3.20;99.90;;;;;;5051489;28;19920;-70
2022/01/07 07:04:21;;;;;;;;;;;-3.20;99.90;;;;;;5050882;28;20397;-70
2022/01/07 07:06:48;;;;;;;;;;;-3.10;99.90;;;;;;5052222;28;19962;-70
2022/01/07 07:09:19;;;;;;;;;;;-3.10;99.90;;;;;;5059144;28;20011;-70
2022/01/07 07:11:51;;;;;;;;;;;-3.00;99.90;;;;;;5051566;28;19927;-72
2022/01/07 07:14:23;;;;;;;;;;;-3.00;99.90;;;;;;5051040;28;19974;-70
2022/01/07 07:16:55;;;;;;;;;;;-2.90;99.90;;;;;;5033065;28;19921;-70
2022/01/07 07:19:22;;;;;;;;;;;-2.90;99.90;;;;;;5055588;28;19988;-72
2022/01/07 07:21:49;;;;;;;;;;;-2.80;99.90;;;;;;5066318;28;19920;-70
2022/01/07 07:24:16;;;;;;;;;;;-2.80;99.90;;;;;;5070862;28;20014;-71
2022/01/07 07:26:42;;;;;;;;;;;-2.70;99.90;;;;;;5071052;28;19955;-70
2022/01/07 07:29:09;;;;;;;;;;;-2.70;99.90;;;;;;5028858;28;20336;-75
2022/01/07 07:31:46;;;;;;;;;;;-2.70;99.90;;;;;;5032837;28;20015;-70
2022/01/07 07:34:31;;;;;;;;;;;-2.60;99.90;;;;;;5032707;28;20015;-70
2022/01/07 07:37:03;;;;;;;;;;;-2.60;99.90;;;;;;5031051;28;19921;-71
2022/01/07 07:39:30;;;;;;;;;;;-2.50;99.90;;;;;;5047812;28;20011;-73
2022/01/07 07:41:57;;;;;;;;;;;-2.40;99.90;;;;;;5038485;28;19970;-73
2022/01/07 07:44:31;;;;;;;;;;;-2.40;99.90;;;;;;5045356;28;19928;-70
2022/01/07 07:47:02;;;;;;;;;;;-2.30;99.90;;;;;;5052339;28;19960;-70
2022/01/07 07:49:29;;;;;;;;;;;-2.30;99.90;;;;;;5015743;28;19921;-71
2022/01/07 07:52:02;;;;;;;;;;;-2.30;99.90;;;;;;5045778;28;20015;-69
2022/01/07 07:54:28;;;;;;;;;;;-2.20;99.90;;;;;;5039662;28;19920;-70
2022/01/07 07:57:01;;;;;;;;;;;-2.20;99.90;;;;;;5036931;28;20451;-70
2022/01/07 07:59:28;;;;;;;;;;;-2.10;99.90;;;;;;5035446;28;20015;-70
2022/01/07 08:01:55;;;;;;;;;;;-2.10;99.90;;;;;;5018113;28;19929;-70
2022/01/07 08:04:23;;;;;;;;;;;-2.10;99.90;;;;;;5053808;28;19924;-70
2022/01/07 08:06:51;;;;;;;;;;;-2.10;99.90;;;;;;5035131;28;19920;-71
2022/01/07 08:09:19;;;;;;;;;;;-2.00;99.90;;;;;;5045688;28;19925;-71
2022/01/07 08:11:52;;;;;;;;;;;-2.00;99.90;;;;;;5051645;28;19956;-71
2022/01/07 08:17:16;;;;;;;;;;;-1.90;99.90;;;;;;5039530;28;20415;-71
2022/01/07 08:19:42;;;;;;;;;;;-1.80;99.90;;;;;;5036807;28;19975;-72
2022/01/07 08:22:10;;;;;;;;;;;-1.70;99.90;;;;;;5036264;28;20015;-72
2022/01/07 08:24:37;;;;;;;;;;;-1.70;99.90;;;;;;5036188;28;19921;-71
2022/01/07 08:27:05;;;;;;;;;;;-1.60;99.90;;;;;;5047846;28;19921;-70
2022/01/07 08:29:35;;;;;;;;;;;-1.60;99.90;;;;;;5033785;28;19970;-71
2022/01/07 08:35:01;;;;;;;;;;;-1.50;99.90;;;;;;4998613;28;20313;-70
2022/01/07 08:37:28;;;;;;;;;;;-1.50;99.90;;;;;;5053697;28;20360;-70
2022/01/07 08:40:01;;;;;;;;;;;-1.50;99.90;;;;;;5035826;28;20405;-74
2022/01/07 08:42:27;;;;;;;;;;;-1.40;99.90;;;;;;5054139;28;20011;-70
2022/01/07 08:44:58;;;;;;;;;;;-1.40;99.90;;;;;;5057005;28;19925;-70
2022/01/07 08:47:25;;;;;;;;;;;-1.40;99.90;;;;;;5035523;28;20023;-70
2022/01/07 08:49:53;;;;;;;;;;;-1.30;99.90;;;;;;5031948;28;20555;-70
2022/01/07 08:52:20;;;;;;;;;;;-1.30;99.90;;;;;;5031241;28;19967;-70
2022/01/07 08:54:57;;;;;;;;;;;-1.30;99.90;;;;;;5048505;28;19920;-71
2022/01/07 08:57:33;;;;;;;;;;;-1.30;99.90;;;;;;5035097;28;20344;-70
2022/01/07 09:00:04;;;;;;;;;;;-1.30;99.90;;;;;;5034704;28;19924;-71
2022/01/07 09:02:35;;;;;;;;;;;-1.30;99.90;;;;;;5034690;28;20012;-72
2022/01/07 09:05:08;;;;;;;;;;;-1.30;99.90;;;;;;5023757;28;19927;-71
2022/01/07 09:07:35;;;;;;;;;;;-1.30;99.90;;;;;;5050713;28;20585;-72
2022/01/07 09:10:08;;;;;;;;;;;-1.40;99.90;;;;;;5031020;28;20308;-72
2022/01/07 09:12:41;;;;;;;;;;;-1.30;99.90;;;;;;5034038;28;19921;-73
2022/01/07 09:15:13;;;;;;;;;;;-1.30;99.90;;;;;;5035176;28;19925;-73
2022/01/07 09:17:49;;;;;;;;;;;-1.30;99.90;;;;;;5036036;28;20019;-73
2022/01/07 09:20:20;;;;;;;;;;;-1.30;99.90;;;;;;5022207;28;20016;-72
2022/01/07 09:22:53;;;;;;;;;;;-1.30;99.90;;;;;;5002124;28;19928;-72
2022/01/07 09:25:26;;;;;;;;;;;-1.20;99.90;;;;;;5019382;28;20377;-72
2022/01/07 09:27:54;;;;;;;;;;;-1.20;99.90;;;;;;5024496;28;19963;-72
2022/01/07 09:30:27;;;;;;;;;;;-1.20;99.90;;;;;;5048646;28;19921;-72
2022/01/07 09:32:54;;;;;;;;;;;-1.20;99.90;;;;;;5017189;28;19951;-72
2022/01/07 09:35:27;;;;;;;;;;;-1.20;99.90;;;;;;5031038;28;19921;-72
2022/01/07 09:37:53;;;;;;;;;;;-1.10;99.90;;;;;;5030999;28;19935;-73
2022/01/07 09:40:20;;;;;;;;;;;-1.10;99.90;;;;;;5024376;28;19960;-72
2022/01/07 09:42:58;;;;;;;;;;;-0.90;99.90;;;;;;5047744;28;19952;-72
2022/01/07 09:45:25;;;;;;;;;;;-0.90;99.90;;;;;;5034592;28;19942;-72
2022/01/07 09:47:59;;;;;;;;;;;-1.00;99.90;;;;;;5052469;28;20460;-72
2022/01/07 09:50:27;;;;;;;;;;;-0.90;99.90;;;;;;5026640;28;20669;-72
2022/01/07 09:53:03;;;;;;;;;;;-1.00;99.90;;;;;;5039623;28;20304;-72
2022/01/07 09:55:30;;;;;;;;;;;-0.90;99.90;;;;;;5049707;28;20292;-72
2022/01/07 09:57:56;;;;;;;;;;;-0.90;99.90;;;;;;5050999;28;20019;-72
2022/01/07 10:00:23;;;;;;;;;;;-0.90;99.90;;;;;;5052524;28;19925;-71
2022/01/07 10:03:29;;;;;;;;;;;-0.90;99.90;;;;;;5015042;28;19920;-72
2022/01/07 10:06:00;;;;;;;;;;;-0.90;99.90;;;;;;4974530;28;20012;-72
2022/01/07 10:08:32;;;;;;;;;;;-0.90;99.90;;;;;;4973300;28;20483;-72
2022/01/07 10:11:14;;;;;;;;;;;-0.90;99.90;;;;;;5013152;28;19921;-72
2022/01/07 10:14:06;;;;;;;;;;;-1.00;99.90;;;;;;5051648;28;19920;-72
2022/01/07 10:16:50;;;;;;;;;;;-0.90;99.90;;;;;;5007113;28;20399;-72
2022/01/07 10:19:38;;;;;;;;;;;-0.80;99.90;;;;;;5039853;28;20370;-72
2022/01/07 10:22:11;;;;;;;;;;;-0.90;99.90;;;;;;5050779;28;19921;-72
2022/01/07 10:24:56;;;;;;;;;;;-0.90;99.90;;;;;;5015968;28;19925;-72
2022/01/07 10:27:35;;;;;;;;;;;-0.90;99.90;;;;;;5019706;28;19921;-73
2022/01/07 10:30:11;;;;;;;;;;;-0.80;99.90;;;;;;5003039;28;19921;-72
2022/01/07 10:32:38;;;;;;;;;;;-0.80;99.90;;;;;;5031691;28;20004;-72
2022/01/07 10:35:04;;;;;;;;;;;-0.80;99.90;;;;;;5034044;28;20023;-72
2022/01/07 10:37:44;;;;;;;;;;;-0.80;99.90;;;;;;5020753;28;20019;-71
2022/01/07 10:40:23;;;;;;;;;;;-0.80;99.90;;;;;;5014310;28;19928;-72
2022/01/07 10:42:50;;;;;;;;;;;-0.80;99.90;;;;;;5048095;28;20023;-71
2022/01/07 10:45:18;;;;;;;;;;;-0.80;99.90;;;;;;5032850;28;19921;-72
2022/01/07 10:47:51;;;;;;;;;;;-0.80;99.90;;;;;;5049507;28;19929;-72
2022/01/07 10:50:24;;;;;;;;;;;-0.70;99.90;;;;;;5034888;28;20408;-72
2022/01/07 10:52:51;;;;;;;;;;;-0.70;99.90;;;;;;5033022;28;19921;-72
2022/01/07 10:55:24;;;;;;;;;;;-0.70;99.90;;;;;;5026579;28;19921;-72
2022/01/07 10:57:55;;;;;;;;;;;-0.70;99.90;;;;;;5034431;28;20015;-72
2022/01/07 11:00:29;;;;;;;;;;;-0.70;99.90;;;;;;5042514;28;20300;-72
2022/01/07 11:02:59;;;;;;;;;;;-0.70;99.90;;;;;;5042177;28;19928;-72
2022/01/07 11:05:26;;;;;;;;;;;-0.70;99.90;;;;;;5020956;28;20015;-72
2022/01/07 11:07:59;;;;;;;;;;;-0.70;99.90;;;;;;5040392;28;20024;-72
2022/01/07 11:10:28;;;;;;;;;;;-0.60;99.90;;;;;;5060375;28;19920;-72
2022/01/07 11:12:56;;;;;;;;;;;-0.50;99.90;;;;;;5039195;28;20439;-72
2022/01/07 11:15:23;;;;;;;;;;;-0.50;99.90;;;;;;5037377;28;19935;-72
2022/01/07 11:17:50;;;;;;;;;;;-0.60;99.90;;;;;;5055164;28;20030;-72
2022/01/07 11:20:24;;;;;;;;;;;-0.60;99.90;;;;;;5058986;28;19968;-72
2022/01/07 11:22:51;;;;;;;;;;;-0.50;99.90;;;;;;5057482;28;20032;-72
2022/01/07 11:25:29;;;;;;;;;;;-0.40;99.90;;;;;;5046092;28;19955;-72
2022/01/07 11:28:00;;;;;;;;;;;-0.40;99.90;;;;;;5057145;28;19921;-73
2022/01/07 11:30:33;;;;;;;;;;;-0.40;99.90;;;;;;5065991;28;19928;-73
2022/01/07 11:33:00;;;;;;;;;;;-0.30;99.90;;;;;;5036545;28;20420;-72
2022/01/07 11:35:41;;;;;;;;;;;-0.30;99.90;;;;;;5036927;28;20369;-73
2022/01/07 11:38:13;;;;;;;;;;;-0.30;99.90;;;;;;5070701;28;20274;-73
2022/01/07 11:40:45;;;;;;;;;;;-0.20;99.90;;;;;;5038201;28;19921;-73
2022/01/07 11:43:20;;;;;;;;;;;-0.20;99.90;;;;;;5020279;28;19928;-73
2022/01/07 11:45:52;;;;;;;;;;;-0.10;99.90;;;;;;5034336;28;19928;-72
2022/01/07 11:48:23;;;;;;;;;;;-0.10;99.90;;;;;;5048788;28;20289;-73
2022/01/07 11:51:02;;;;;;;;;;;0.00;99.90;;;;;;5038364;28;19924;-72
2022/01/07 11:53:37;;;;;;;;;;;0.00;99.90;;;;;;5040585;28;19935;-73
2022/01/07 11:56:10;;;;;;;;;;;0.00;99.90;;;;;;5039306;28;20293;-71
2022/01/07 11:58:38;;;;;;;;;;;0.00;99.90;;;;;;5039973;28;20019;-71
2022/01/07 12:01:05;;;;;;;;;;;0.00;99.90;;;;;;5058766;28;20011;-72
2022/01/07 12:03:38;;;;;;;;;;;0.00;99.90;;;;;;5056584;28;20015;-72
2022/01/07 12:06:17;;;;;;;;;;;0.10;99.90;;;;;;5036307;28;19920;-72
2022/01/07 12:08:56;;;;;;;;;;;0.10;99.90;;;;;;5030332;28;19978;-72
2022/01/07 12:11:28;;;;;;;;;;;0.10;99.90;;;;;;5027093;28;20007;-72
2022/01/07 12:13:55;;;;;;;;;;;0.20;99.90;;;;;;5022115;28;19927;-72
2022/01/07 12:16:31;;;;;;;;;;;0.10;99.90;;;;;;5045348;28;19921;-72
2022/01/07 12:19:16;;;;;;;;;;;0.00;99.90;;;;;;5054172;28;20015;-72
2022/01/07 12:21:43;;;;;;;;;;;0.00;99.90;;;;;;5050388;28;20015;-72
2022/01/07 12:24:26;;;;;;;;;;;0.10;99.90;;;;;;5016599;28;19927;-72
2022/01/07 12:27:01;;;;;;;;;;;0.10;99.90;;;;;;5042353;28;19927;-72
2022/01/07 12:29:30;;;;;;;;;;;0.10;99.90;;;;;;5049355;28;19921;-72
2022/01/07 12:31:56;;;;;;;;;;;0.10;99.90;;;;;;5034121;28;19921;-72
2022/01/07 12:34:29;;;;;;;;;;;0.20;99.90;;;;;;5033675;28;19921;-73
2022/01/07 12:37:02;;;;;;;;;;;0.10;99.90;;;;;;5033460;28;19978;-73
2022/01/07 12:39:31;;;;;;;;;;;0.20;99.90;;;;;;5031143;28;19925;-73
2022/01/07 12:41:58;;;;;;;;;;;0.30;99.90;;;;;;5030029;28;19960;-72
2022/01/07 12:44:25;;;;;;;;;;;0.30;99.90;;;;;;5035000;28;19921;-72
2022/01/07 12:46:56;;;;;;;;;;;0.30;99.90;;;;;;5019039;28;19921;-73
2022/01/07 12:49:42;;;;;;;;;;;0.30;99.90;;;;;;5048695;28;20367;-71
2022/01/07 12:52:17;;;;;;;;;;;0.30;99.90;;;;;;5035410;28;20332;-73
2022/01/07 12:54:59;;;;;;;;;;;0.30;99.90;;;;;;5027912;28;19974;-73
2022/01/07 12:57:34;;;;;;;;;;;0.30;99.90;;;;;;5059300;28;19920;-76
2022/01/07 13:00:21;;;;;;;;;;;0.20;99.90;;;;;;5036389;28;19920;-71
2022/01/07 13:02:49;;;;;;;;;;;0.20;99.90;;;;;;5046190;28;19960;-73
2022/01/07 13:05:23;;;;;;;;;;;0.20;99.90;;;;;;5035244;28;19921;-73
2022/01/07 13:07:57;;;;;;;;;;;0.20;99.90;;;;;;5029466;28;20016;-73
2022/01/07 13:10:29;;;;;;;;;;;0.20;99.90;;;;;;5018134;28;19925;-71
2022/01/07 13:13:04;;;;;;;;;;;0.20;99.90;;;;;;5058626;28;19931;-73
2022/01/07 13:15:36;;;;;;;;;;;0.30;99.90;;;;;;5033603;28;19921;-72
2022/01/07 13:18:23;;;;;;;;;;;0.30;99.90;;;;;;5019875;28;19924;-73
2022/01/07 13:20:56;;;;;;;;;;;0.40;99.90;;;;;;5026782;28;19925;-72
2022/01/07 13:23:29;;;;;;;;;;;0.50;99.90;;;;;;5021749;28;19935;-72
2022/01/07 13:26:01;;;;;;;;;;;0.50;99.90;;;;;;5049109;28;20012;-73
2022/01/07 13:28:40;;;;;;;;;;;0.50;99.90;;;;;;5030807;28;19927;-72
2022/01/07 13:31:13;;;;;;;;;;;0.40;99.90;;;;;;5050423;28;19974;-71
2022/01/07 13:33:45;;;;;;;;;;;0.40;99.90;;;;;;5033387;28;19928;-73
2022/01/07 13:36:17;;;;;;;;;;;0.30;99.90;;;;;;5022233;28;20027;-72
2022/01/07 13:38:58;;;;;;;;;;;0.20;99.90;;;;;;5050107;28;19933;-72
2022/01/07 13:41:26;;;;;;;;;;;0.20;99.90;;;;;;5030813;28;20019;-73
2022/01/07 13:44:01;;;;;;;;;;;0.20;99.90;;;;;;5033036;28;19927;-72
2022/01/07 13:46:36;;;;;;;;;;;0.20;99.90;;;;;;5026539;28;19932;-73
2022/01/07 13:49:03;;;;;;;;;;;0.20;99.90;;;;;;5032256;28;19925;-72
2022/01/07 13:51:36;;;;;;;;;;;0.20;99.90;;;;;;5034179;28;19929;-72
2022/01/07 13:54:09;;;;;;;;;;;0.20;99.90;;;;;;5046211;28;19920;-73
2022/01/07 13:56:43;;;;;;;;;;;0.10;99.90;;;;;;5033641;28;19921;-72
2022/01/07 13:59:15;;;;;;;;;;;0.10;99.90;;;;;;5051244;28;19929;-72
2022/01/07 14:01:56;;;;;;;;;;;0.10;99.90;;;;;;5018868;28;19921;-71
2022/01/07 14:04:47;;;;;;;;;;;0.00;99.90;;;;;;5018756;28;19964;-72
2022/01/07 14:07:25;;;;;;;;;;;0.00;99.90;;;;;;5054469;28;20020;-71
2022/01/07 14:10:04;;;;;;;;;;;-0.10;99.90;;;;;;5033812;28;19920;-71
2022/01/07 14:12:36;;;;;;;;;;;-0.10;99.90;;;;;;5042202;28;19920;-72
2022/01/07 14:15:05;;;;;;;;;;;-0.10;99.90;;;;;;5027600;28;19921;-72
2022/01/07 14:17:38;;;;;;;;;;;-0.20;99.90;;;;;;5035086;28;20015;-72
2022/01/07 14:20:11;;;;;;;;;;;-0.10;99.90;;;;;;5050473;28;19920;-72
2022/01/07 14:22:47;;;;;;;;;;;-0.10;99.90;;;;;;5037058;28;19963;-72
2022/01/07 14:25:16;;;;;;;;;;;-0.10;99.90;;;;;;5049230;28;20009;-72
2022/01/07 14:27:49;;;;;;;;;;;-0.20;99.90;;;;;;5026540;28;20381;-72
2022/01/07 14:30:21;;;;;;;;;;;-0.20;99.90;;;;;;5034499;28;19927;-72
2022/01/07 14:32:52;;;;;;;;;;;-0.30;99.90;;;;;;5029722;28;19920;-72
2022/01/07 14:35:19;;;;;;;;;;;-0.30;99.90;;;;;;5031560;28;20316;-72
2022/01/07 14:37:46;;;;;;;;;;;-0.20;99.90;;;;;;5032312;28;19926;-72
2022/01/07 14:40:12;;;;;;;;;;;-0.30;99.90;;;;;;5033295;28;20627;-72
2022/01/07 14:42:39;;;;;;;;;;;-0.20;99.90;;;;;;5035615;28;20397;-72
2022/01/07 14:45:11;;;;;;;;;;;-0.20;99.90;;;;;;5045169;28;19935;-72
2022/01/07 14:47:43;;;;;;;;;;;-0.20;99.90;;;;;;5052732;28;20273;-72